Time;durP1;ratioP1;P1;durP2;ratioP2;P2;SDS_P1;SDS_P2;PMS_P1;PMS_P2;Temp;Humidity;BMP_temperature;BMP_pressure;BME280_temperature;BME280_humidity;BME280_pressure;Samples;Min_cycle;Max_cycle;Signal;HPM_P1;HPM_P2
2021/03/02 00:01:03;;;;;;;14.32;6.90;;;;;10.70;103009.00;;;;5060193;28;20241;-81
2021/03/02 00:03:31;;;;;;;12.40;6.82;;;;;10.70;103017.00;;;;5067267;28;20198;-81
2021/03/02 00:05:59;;;;;;;14.70;7.15;;;;;10.60;103015.00;;;;5065078;28;20944;-80
2021/03/02 00:08:27;;;;;;;11.95;7.10;;;;;10.60;103009.00;;;;5066926;28;20203;-81
2021/03/02 00:10:56;;;;;;;14.30;7.75;;;;;10.60;103015.00;;;;5059190;28;20314;-81
2021/03/02 00:13:24;;;;;;;11.50;6.50;;;;;10.60;103009.00;;;;5052584;28;20210;-82
2021/03/02 00:15:51;;;;;;;12.77;6.18;;;;;10.60;103008.00;;;;5066367;28;20202;-81
2021/03/02 00:18:20;;;;;;;10.70;6.60;;;;;10.60;103012.00;;;;5056596;28;20198;-81
2021/03/02 00:20:51;;;;;;;12.57;6.68;;;;;10.60;103015.00;;;;5067596;28;20463;-82
2021/03/02 00:23:24;;;;;;;13.63;7.43;;;;;10.50;103015.00;;;;5066052;28;20209;-81
2021/03/02 00:25:55;;;;;;;17.05;7.65;;;;;10.50;103018.00;;;;5060750;28;20195;-82
2021/03/02 00:28:26;;;;;;;15.25;6.82;;;;;10.50;103019.00;;;;5067299;28;20206;-81
2021/03/02 00:30:54;;;;;;;12.38;6.78;;;;;10.50;103016.00;;;;5070811;28;20213;-81
2021/03/02 00:33:22;;;;;;;16.50;8.23;;;;;10.50;103017.00;;;;5071324;28;20191;-81
2021/03/02 00:35:49;;;;;;;14.77;7.45;;;;;10.50;103013.00;;;;5063508;28;20247;-82
2021/03/02 00:38:16;;;;;;;14.98;7.70;;;;;10.40;103015.00;;;;5066398;28;20210;-81
2021/03/02 00:40:43;;;;;;;13.20;6.43;;;;;10.40;103010.00;;;;5061572;28;20231;-82
2021/03/02 00:43:10;;;;;;;13.43;6.75;;;;;10.40;103013.00;;;;5051450;28;20249;-82
2021/03/02 00:45:37;;;;;;;13.13;6.88;;;;;10.40;103008.00;;;;5069262;28;20261;-82
2021/03/02 00:48:05;;;;;;;13.57;6.75;;;;;10.40;103007.00;;;;5070015;28;20259;-82
2021/03/02 00:50:32;;;;;;;13.93;6.95;;;;;10.30;103002.00;;;;5065126;28;20200;-82
2021/03/02 00:52:58;;;;;;;12.48;6.45;;;;;10.40;103004.00;;;;5053060;28;20685;-82
2021/03/02 00:55:25;;;;;;;12.07;6.22;;;;;10.30;102997.00;;;;5069446;28;20198;-83
2021/03/02 00:57:53;;;;;;;13.68;7.57;;;;;10.30;103004.00;;;;5069870;28;20202;-82
2021/03/02 01:00:20;;;;;;;13.85;7.18;;;;;10.30;102997.00;;;;5070002;28;20306;-82
2021/03/02 01:02:48;;;;;;;12.52;6.13;;;;;10.30;103000.00;;;;5070264;28;20578;-82
2021/03/02 01:05:15;;;;;;;13.77;7.90;;;;;10.20;102998.00;;;;5067291;28;20704;-82
2021/03/02 01:07:42;;;;;;;14.85;7.65;;;;;10.20;102993.00;;;;5070076;28;20191;-82
2021/03/02 01:10:10;;;;;;;13.95;7.05;;;;;10.20;102995.00;;;;5060368;28;20997;-82
2021/03/02 01:12:37;;;;;;;13.57;6.80;;;;;10.20;102988.00;;;;5054976;28;20204;-82
2021/03/02 01:15:06;;;;;;;14.15;7.38;;;;;10.20;102989.00;;;;5060042;28;20195;-82
2021/03/02 01:17:33;;;;;;;13.85;7.10;;;;;10.20;102986.00;;;;5053969;28;20276;-82
2021/03/02 01:26:46;;;;;;;12.00;6.55;;;;;10.10;102982.00;;;;5067097;28;20217;-82
2021/03/02 01:29:12;;;;;;;14.35;7.07;;;;;10.10;102979.00;;;;5069612;28;20194;-83
2021/03/02 01:31:39;;;;;;;12.85;6.90;;;;;10.10;102972.00;;;;5069922;28;20258;-82
2021/03/02 01:34:06;;;;;;;14.50;7.18;;;;;10.10;102990.00;;;;5070658;28;20190;-82
2021/03/02 01:36:33;;;;;;;13.30;7.50;;;;;10.10;102982.00;;;;5069475;28;20617;-82
2021/03/02 01:39:00;;;;;;;14.40;6.80;;;;;10.10;102980.00;;;;5068674;28;20199;-82
2021/03/02 01:41:27;;;;;;;11.73;6.07;;;;;10.10;102972.00;;;;5069203;28;20218;-82
2021/03/02 01:43:55;;;;;;;12.20;6.53;;;;;10.10;102967.00;;;;5062297;28;20196;-82
2021/03/02 01:46:21;;;;;;;14.23;7.68;;;;;10.10;102971.00;;;;5068162;28;20205;-83
2021/03/02 01:48:48;;;;;;;14.27;7.18;;;;;10.00;102968.00;;;;5069009;28;20195;-82
2021/03/02 01:51:15;;;;;;;14.07;6.85;;;;;10.10;102968.00;;;;5058683;28;20200;-82
2021/03/02 01:53:42;;;;;;;12.13;6.47;;;;;10.00;102964.00;;;;5053767;28;20188;-82
2021/03/02 01:56:09;;;;;;;15.45;7.15;;;;;10.00;102961.00;;;;5067627;28;20202;-81
2021/03/02 01:58:36;;;;;;;11.48;6.00;;;;;10.00;102955.00;;;;5069405;28;20195;-82
2021/03/02 02:01:08;;;;;;;14.38;7.32;;;;;9.90;102947.00;;;;5069852;28;20230;-82
2021/03/02 02:03:44;;;;;;;13.57;6.57;;;;;9.90;102955.00;;;;5069133;28;20191;-82
2021/03/02 02:06:16;;;;;;;12.02;7.22;;;;;10.00;102957.00;;;;5062129;28;20195;-82
2021/03/02 02:08:56;;;;;;;12.55;6.70;;;;;9.90;102959.00;;;;5069230;28;20205;-82
2021/03/02 02:11:47;;;;;;;15.13;8.18;;;;;9.90;102952.00;;;;5066476;28;20195;-82
2021/03/02 02:14:22;;;;;;;14.52;7.18;;;;;9.90;102951.00;;;;5065811;28;20257;-82
2021/03/02 02:16:55;;;;;;;14.95;7.45;;;;;9.90;102947.00;;;;5067271;28;20676;-82
2021/03/02 02:19:36;;;;;;;14.25;7.60;;;;;9.90;102941.00;;;;5060417;28;20215;-81
2021/03/02 02:22:17;;;;;;;11.88;6.55;;;;;9.80;102938.00;;;;5068722;28;20222;-82
2021/03/02 02:25:08;;;;;;;13.15;6.63;;;;;9.80;102945.00;;;;5067515;28;20550;-82
2021/03/02 02:27:38;;;;;;;15.23;6.90;;;;;9.80;102940.00;;;;5069524;28;20206;-81
2021/03/02 02:30:08;;;;;;;12.48;6.80;;;;;9.80;102939.00;;;;5068144;28;20572;-81
2021/03/02 02:32:38;;;;;;;12.18;6.57;;;;;9.80;102935.00;;;;5068560;28;20198;-82
2021/03/02 02:35:07;;;;;;;12.07;6.78;;;;;9.80;102932.00;;;;5066965;28;20223;-82
2021/03/02 02:37:34;;;;;;;13.05;6.80;;;;;9.80;102933.00;;;;5068625;28;20191;-82
2021/03/02 02:40:03;;;;;;;16.45;7.07;;;;;9.80;102939.00;;;;5068088;28;20210;-82
2021/03/02 02:42:31;;;;;;;13.63;6.55;;;;;9.80;102932.00;;;;5048746;28;20606;-82
2021/03/02 02:44:59;;;;;;;14.88;7.43;;;;;9.70;102930.00;;;;5060491;28;20198;-82
2021/03/02 02:47:26;;;;;;;12.65;6.60;;;;;9.70;102929.00;;;;5068227;28;20210;-82
2021/03/02 02:49:54;;;;;;;11.10;5.90;;;;;9.70;102934.00;;;;5067937;28;20653;-82
2021/03/02 02:52:21;;;;;;;13.48;7.07;;;;;9.70;102923.00;;;;5063658;28;20194;-82
2021/03/02 02:54:52;;;;;;;13.15;6.40;;;;;9.60;102926.00;;;;5066478;28;20202;-82
2021/03/02 02:57:20;;;;;;;15.07;7.65;;;;;9.60;102918.00;;;;5068912;28;20281;-82
2021/03/02 02:59:48;;;;;;;15.32;7.20;;;;;9.60;102927.00;;;;5066107;28;20200;-82
2021/03/02 03:02:20;;;;;;;14.15;7.40;;;;;9.50;102924.00;;;;5061343;28;20233;-82
2021/03/02 03:04:50;;;;;;;14.95;7.40;;;;;9.50;102937.00;;;;5066782;28;20593;-82
2021/03/02 03:07:21;;;;;;;13.35;6.57;;;;;9.50;102929.00;;;;5053832;28;20229;-82
2021/03/02 03:09:50;;;;;;;12.77;6.07;;;;;9.50;102933.00;;;;5067744;28;20199;-82
2021/03/02 03:12:17;;;;;;;15.02;7.30;;;;;9.50;102934.00;;;;5064460;28;20207;-82
2021/03/02 03:14:49;;;;;;;12.38;7.22;;;;;9.40;102935.00;;;;5055669;28;20202;-82
2021/03/02 03:17:19;;;;;;;15.43;7.63;;;;;9.40;102931.00;;;;5064214;28;20192;-82
2021/03/02 03:19:47;;;;;;;14.15;7.45;;;;;9.40;102935.00;;;;5063469;28;20630;-82
2021/03/02 03:22:15;;;;;;;12.10;6.93;;;;;9.40;102932.00;;;;5054404;28;20704;-82
2021/03/02 03:24:43;;;;;;;14.88;7.25;;;;;9.40;102932.00;;;;5063419;28;20217;-82
2021/03/02 03:27:11;;;;;;;13.98;7.20;;;;;9.40;102936.00;;;;5067977;28;20191;-82
2021/03/02 03:29:39;;;;;;;14.52;7.50;;;;;9.30;102937.00;;;;5056843;28;20200;-82
2021/03/02 03:32:09;;;;;;;13.25;6.95;;;;;9.30;102939.00;;;;5067892;28;20239;-82
2021/03/02 03:34:39;;;;;;;12.95;6.32;;;;;9.30;102942.00;;;;5067188;28;20214;-81
2021/03/02 03:37:06;;;;;;;13.65;7.10;;;;;9.30;102930.00;;;;5065763;28;20195;-82
2021/03/02 03:39:33;;;;;;;14.43;8.05;;;;;9.20;102940.00;;;;5068486;28;20187;-82
2021/03/02 03:42:00;;;;;;;12.48;6.65;;;;;9.20;102932.00;;;;5067804;28;20244;-82
2021/03/02 03:44:27;;;;;;;11.98;6.28;;;;;9.20;102936.00;;;;5066689;28;20191;-82
2021/03/02 03:46:54;;;;;;;13.52;6.95;;;;;9.20;102935.00;;;;5056223;28;20565;-82
2021/03/02 03:49:21;;;;;;;15.38;6.45;;;;;9.10;102929.00;;;;5068405;28;20194;-82
2021/03/02 03:51:49;;;;;;;12.20;6.82;;;;;9.10;102937.00;;;;5066214;28;20203;-82
2021/03/02 03:54:16;;;;;;;11.68;6.35;;;;;9.10;102938.00;;;;5067256;28;20207;-82
2021/03/02 03:56:45;;;;;;;13.60;6.50;;;;;9.00;102944.00;;;;5068471;28;20324;-82
2021/03/02 03:59:13;;;;;;;11.88;6.07;;;;;9.00;102936.00;;;;5066963;28;20190;-82
2021/03/02 04:01:41;;;;;;;12.88;7.30;;;;;9.00;102947.00;;;;5066693;28;20218;-82
2021/03/02 04:04:08;;;;;;;13.55;6.82;;;;;8.90;102935.00;;;;5071589;28;20203;-82
2021/03/02 04:06:35;;;;;;;13.70;6.57;;;;;8.90;102942.00;;;;5057631;28;20662;-82
2021/03/02 04:09:05;;;;;;;15.40;7.22;;;;;8.90;102942.00;;;;5069653;28;21016;-82
2021/03/02 04:11:34;;;;;;;17.63;7.22;;;;;8.80;102942.00;;;;5070564;28;20222;-82
2021/03/02 04:14:01;;;;;;;16.10;8.90;;;;;8.80;102942.00;;;;5070349;28;20199;-82
2021/03/02 04:16:28;;;;;;;14.27;6.30;;;;;8.80;102939.00;;;;5069300;28;20221;-82
2021/03/02 04:18:56;;;;;;;14.48;7.15;;;;;8.80;102933.00;;;;5070878;28;20226;-82
2021/03/02 04:21:23;;;;;;;13.40;7.53;;;;;8.70;102936.00;;;;5070104;28;20223;-82
2021/03/02 04:23:50;;;;;;;17.30;7.50;;;;;8.70;102937.00;;;;5069926;28;20669;-82
2021/03/02 04:26:17;;;;;;;15.13;7.50;;;;;8.70;102927.00;;;;5071527;28;20195;-81
2021/03/02 04:28:45;;;;;;;16.85;6.97;;;;;8.70;102923.00;;;;5070106;28;20195;-82
2021/03/02 04:31:11;;;;;;;16.98;7.03;;;;;8.60;102924.00;;;;5070386;28;20191;-82
2021/03/02 04:33:38;;;;;;;16.70;8.13;;;;;8.60;102925.00;;;;5069805;28;20612;-82
2021/03/02 04:36:06;;;;;;;17.20;8.13;;;;;8.60;102930.00;;;;5070650;28;20712;-81
2021/03/02 04:38:33;;;;;;;14.65;6.65;;;;;8.60;102920.00;;;;5070219;28;20679;-82
2021/03/02 04:40:59;;;;;;;15.27;7.43;;;;;8.50;102922.00;;;;5070549;28;20226;-82
2021/03/02 04:43:27;;;;;;;14.75;7.43;;;;;8.50;102919.00;;;;5063170;28;20194;-82
2021/03/02 04:45:54;;;;;;;14.32;7.32;;;;;8.50;102921.00;;;;5069431;28;20206;-81
2021/03/02 04:48:21;;;;;;;12.45;6.40;;;;;8.50;102923.00;;;;5070025;28;20959;-82
2021/03/02 04:50:48;;;;;;;14.98;7.63;;;;;8.50;102920.00;;;;5064078;28;20188;-82
2021/03/02 04:53:14;;;;;;;17.00;7.68;;;;;8.40;102920.00;;;;5061346;28;20212;-82
2021/03/02 04:55:41;;;;;;;14.93;6.82;;;;;8.40;102908.00;;;;5069406;28;20187;-82
2021/03/02 04:58:08;;;;;;;17.85;8.48;;;;;8.40;102910.00;;;;5070519;28;20191;-82
2021/03/02 05:00:35;;;;;;;15.77;7.53;;;;;8.40;102916.00;;;;5070382;28;20695;-82
2021/03/02 05:03:02;;;;;;;16.35;6.75;;;;;8.30;102916.00;;;;5070556;28;20199;-82
2021/03/02 05:05:29;;;;;;;13.13;7.15;;;;;8.30;102911.00;;;;5069763;28;20195;-82
2021/03/02 05:07:56;;;;;;;14.93;7.82;;;;;8.30;102914.00;;;;5070020;28;20248;-82
2021/03/02 05:10:22;;;;;;;12.95;6.53;;;;;8.30;102912.00;;;;5069601;28;20203;-82
2021/03/02 05:12:49;;;;;;;13.27;7.05;;;;;8.30;102911.00;;;;5070072;28;20688;-82
2021/03/02 05:15:17;;;;;;;14.30;6.97;;;;;8.20;102914.00;;;;5065211;28;20826;-82
2021/03/02 05:17:44;;;;;;;13.68;6.82;;;;;8.20;102911.00;;;;5055359;28;20191;-81
2021/03/02 05:20:12;;;;;;;12.70;6.97;;;;;8.20;102918.00;;;;5060990;28;20249;-82
2021/03/02 05:22:39;;;;;;;13.90;7.53;;;;;8.20;102910.00;;;;5069730;28;20191;-81
2021/03/02 05:25:07;;;;;;;13.80;6.47;;;;;8.20;102912.00;;;;5065356;28;20210;-82
2021/03/02 05:27:33;;;;;;;12.00;6.60;;;;;8.20;102910.00;;;;5064454;28;20732;-81
2021/03/02 05:30:00;;;;;;;14.65;7.85;;;;;8.10;102912.00;;;;5067716;28;20191;-81
2021/03/02 05:32:27;;;;;;;16.27;7.85;;;;;8.10;102912.00;;;;5060450;28;20195;-81
2021/03/02 05:34:55;;;;;;;13.55;6.93;;;;;8.10;102907.00;;;;5069082;28;20223;-82
2021/03/02 05:37:22;;;;;;;12.82;6.82;;;;;8.10;102907.00;;;;5067565;28;20223;-82
2021/03/02 05:39:48;;;;;;;14.55;7.43;;;;;8.10;102915.00;;;;5070305;28;20248;-82
2021/03/02 05:42:15;;;;;;;12.40;6.30;;;;;8.10;102908.00;;;;5070000;28;20234;-82
2021/03/02 05:44:45;;;;;;;13.88;6.97;;;;;8.00;102914.00;;;;5050305;28;20196;-81
2021/03/02 05:47:12;;;;;;;14.90;6.88;;;;;8.00;102913.00;;;;5058804;28;20240;-81
2021/03/02 05:49:40;;;;;;;16.20;7.57;;;;;8.00;102911.00;;;;5068715;28;20205;-81
2021/03/02 05:52:12;;;;;;;12.52;6.60;;;;;8.00;102903.00;;;;5070284;28;20537;-81
2021/03/02 05:54:39;;;;;;;14.25;7.43;;;;;8.00;102899.00;;;;5061543;28;20227;-81
2021/03/02 05:57:06;;;;;;;14.07;6.70;;;;;8.00;102917.00;;;;5066232;28;20566;-81
2021/03/02 05:59:34;;;;;;;12.30;6.43;;;;;8.00;102915.00;;;;5067800;28;20199;-81
2021/03/02 06:02:02;;;;;;;16.13;7.85;;;;;8.00;102910.00;;;;5064215;28;20219;-79
2021/03/02 06:04:28;;;;;;;16.50;7.72;;;;;8.00;102909.00;;;;5068322;28;20202;-79
2021/03/02 06:07:00;;;;;;;13.38;6.57;;;;;7.90;102902.00;;;;5069414;28;20284;-81
2021/03/02 06:09:29;;;;;;;15.18;7.45;;;;;7.90;102896.00;;;;5071410;28;20206;-80
2021/03/02 06:12:03;;;;;;;16.05;7.45;;;;;7.90;102901.00;;;;5061547;28;20612;-81
2021/03/02 06:14:32;;;;;;;13.07;6.28;;;;;7.90;102890.00;;;;5061318;28;20195;-81
2021/03/02 06:16:59;;;;;;;14.85;7.00;;;;;7.90;102896.00;;;;5070321;28;20657;-79
2021/03/02 06:19:44;;;;;;;12.95;6.82;;;;;7.80;102904.00;;;;5074469;28;20909;-79
2021/03/02 06:22:31;;;;;;;12.60;6.47;;;;;7.80;102908.00;;;;5063216;28;20222;-80
2021/03/02 06:25:00;;;;;;;12.15;5.90;;;;;7.90;102897.00;;;;5065869;28;20194;-80
2021/03/02 06:27:27;;;;;;;13.23;7.22;;;;;7.90;102901.00;;;;5064898;28;20195;-80
2021/03/02 06:30:11;;;;;;;13.73;6.82;;;;;7.80;102905.00;;;;5067143;28;20212;-81
2021/03/02 06:32:40;;;;;;;14.60;6.88;;;;;7.90;102910.00;;;;5055533;28;20211;-80
2021/03/02 06:35:08;;;;;;;14.23;7.65;;;;;7.90;102903.00;;;;5049942;28;20228;-77
2021/03/02 06:37:46;;;;;;;14.90;7.53;;;;;7.90;102915.00;;;;5062571;28;20602;-79
2021/03/02 06:40:15;;;;;;;14.00;6.82;;;;;7.90;102905.00;;;;5067881;28;20191;-79
2021/03/02 06:42:42;;;;;;;15.35;7.70;;;;;8.00;102908.00;;;;5065648;28;20489;-80
2021/03/02 06:45:13;;;;;;;11.27;6.82;;;;;8.00;102910.00;;;;5069658;28;20211;-79
2021/03/02 06:47:41;;;;;;;13.52;7.22;;;;;8.00;102914.00;;;;5066330;28;20696;-79
2021/03/02 06:50:23;;;;;;;14.85;7.50;;;;;7.90;102915.00;;;;5055907;28;20191;-78
2021/03/02 06:52:50;;;;;;;14.88;7.53;;;;;8.00;102919.00;;;;5066755;28;20683;-80
2021/03/02 06:55:26;;;;;;;13.38;6.85;;;;;8.00;102920.00;;;;5068024;28;20202;-81
2021/03/02 06:58:15;;;;;;;12.70;6.30;;;;;8.10;102922.00;;;;5068113;28;20194;-81
2021/03/02 07:00:47;;;;;;;13.20;6.22;;;;;8.10;102920.00;;;;5068630;28;20269;-81
2021/03/02 07:03:22;;;;;;;12.10;6.68;;;;;8.10;102920.00;;;;5068295;28;20195;-81
2021/03/02 07:05:49;;;;;;;13.60;6.53;;;;;8.20;102924.00;;;;5067664;28;20276;-80
2021/03/02 07:08:17;;;;;;;14.05;7.28;;;;;8.20;102924.00;;;;5067845;28;20563;-80
2021/03/02 07:10:49;;;;;;;12.55;7.15;;;;;8.20;102932.00;;;;5069012;28;20579;-81
2021/03/02 07:13:17;;;;;;;16.35;7.60;;;;;8.30;102920.00;;;;5068663;28;20209;-80
2021/03/02 07:15:45;;;;;;;11.98;6.82;;;;;8.30;102926.00;;;;5068008;28;20618;-81
2021/03/02 07:18:15;;;;;;;16.45;7.75;;;;;8.30;102929.00;;;;5067786;28;20202;-80
2021/03/02 07:20:47;;;;;;;12.60;6.25;;;;;8.40;102921.00;;;;5068304;28;20223;-81
2021/03/02 07:23:17;;;;;;;11.48;6.55;;;;;8.50;102924.00;;;;5067340;28;20224;-80
2021/03/02 07:25:47;;;;;;;16.50;7.97;;;;;8.50;102925.00;;;;5067654;28;20669;-81
2021/03/02 07:28:15;;;;;;;15.85;7.43;;;;;8.60;102929.00;;;;5067295;28;20587;-80
2021/03/02 07:30:45;;;;;;;15.43;8.45;;;;;8.60;102930.00;;;;5068564;28;20194;-81
2021/03/02 07:33:12;;;;;;;12.40;5.93;;;;;8.70;102927.00;;;;5068591;28;20199;-81
2021/03/02 07:35:39;;;;;;;11.13;6.65;;;;;8.80;102930.00;;;;5067852;28;20235;-81
2021/03/02 07:38:18;;;;;;;17.05;7.47;;;;;8.80;102935.00;;;;5071848;28;20195;-80
2021/03/02 07:40:48;;;;;;;10.82;6.32;;;;;8.90;102939.00;;;;5072118;28;20688;-80
2021/03/02 07:43:33;;;;;;;11.98;7.13;;;;;8.90;102948.00;;;;5072124;28;20604;-81
2021/03/02 07:46:01;;;;;;;12.93;7.15;;;;;9.10;102945.00;;;;5054371;28;20256;-81
2021/03/02 07:48:31;;;;;;;13.57;7.28;;;;;9.20;102948.00;;;;5063567;28;20203;-81
2021/03/02 07:51:17;;;;;;;15.32;6.35;;;;;9.20;102952.00;;;;5067035;28;20416;-82
2021/03/02 07:53:46;;;;;;;13.63;7.78;;;;;9.40;102958.00;;;;5070026;28;20206;-82
2021/03/02 07:56:26;;;;;;;14.85;7.30;;;;;9.40;102957.00;;;;5071862;28;20194;-81
2021/03/02 07:59:17;;;;;;;14.75;7.18;;;;;9.50;102961.00;;;;5071528;28;20202;-81
2021/03/02 08:01:45;;;;;;;13.20;6.97;;;;;9.60;102954.00;;;;5071006;28;20496;-81
2021/03/02 08:04:25;;;;;;;12.63;6.75;;;;;9.60;102957.00;;;;5071185;28;20896;-81
2021/03/02 08:06:54;;;;;;;11.63;6.07;;;;;9.80;102956.00;;;;5071054;28;20209;-81
2021/03/02 08:09:29;;;;;;;14.02;6.55;;;;;9.80;102955.00;;;;5071777;28;20720;-81
2021/03/02 08:12:11;;;;;;;12.68;6.32;;;;;9.90;102963.00;;;;5071899;28;21020;-81
2021/03/02 08:14:38;;;;;;;11.57;6.15;;;;;10.10;102963.00;;;;5060967;28;20195;-81
2021/03/02 08:17:06;;;;;;;12.00;5.68;;;;;10.10;102959.00;;;;5071556;28;20195;-81
2021/03/02 08:19:41;;;;;;;13.05;7.43;;;;;10.20;102968.00;;;;5051220;28;20685;-81
2021/03/02 08:22:45;;;;;;;14.75;7.40;;;;;10.20;102960.00;;;;5051743;28;20325;-81
2021/03/02 08:25:24;;;;;;;12.20;6.95;;;;;10.40;102965.00;;;;5051641;28;20653;-80
2021/03/02 08:27:55;;;;;;;11.93;6.68;;;;;10.50;102960.00;;;;5066254;28;20664;-82
2021/03/02 08:30:24;;;;;;;12.10;6.07;;;;;10.60;102955.00;;;;5072166;28;20291;-82
2021/03/02 08:32:51;;;;;;;9.52;6.05;;;;;10.70;102955.00;;;;5070685;28;20191;-82
2021/03/02 08:35:21;;;;;;;14.55;7.80;;;;;10.80;102956.00;;;;5066060;28;20230;-83
2021/03/02 08:37:49;;;;;;;9.75;6.13;;;;;10.80;102958.00;;;;5063108;28;20204;-83
2021/03/02 08:40:19;;;;;;;13.43;7.05;;;;;10.90;102957.00;;;;5062182;28;20680;-83
2021/03/02 08:43:04;;;;;;;11.93;7.05;;;;;10.90;102960.00;;;;5052975;28;20215;-83
2021/03/02 08:45:34;;;;;;;12.45;6.80;;;;;11.10;102961.00;;;;5063187;28;20199;-83
2021/03/02 08:48:18;;;;;;;12.45;6.80;;;;;11.10;102962.00;;;;5065433;28;20219;-83
2021/03/02 08:50:46;;;;;;;11.90;7.07;;;;;11.30;102966.00;;;;5054484;28;20200;-83
2021/03/02 08:53:27;;;;;;;9.95;6.35;;;;;11.30;102962.00;;;;5060754;28;20269;-84
2021/03/02 08:55:53;;;;;;;11.45;7.18;;;;;11.50;102958.00;;;;5060388;28;20225;-82
2021/03/02 08:58:27;;;;;;;12.32;6.60;;;;;11.50;102966.00;;;;5055211;28;20207;-83
2021/03/02 09:01:03;;;;;;;11.35;6.82;;;;;11.60;102966.00;;;;5063379;28;20230;-83
2021/03/02 09:03:30;;;;;;;12.05;6.22;;;;;11.80;102964.00;;;;5056763;28;20203;-83
2021/03/02 09:06:08;;;;;;;11.02;5.97;;;;;11.80;102966.00;;;;5052032;28;20196;-82
2021/03/02 09:08:42;;;;;;;10.70;6.03;;;;;12.00;102954.00;;;;5055313;28;20187;-82
2021/03/02 09:11:09;;;;;;;10.38;6.05;;;;;12.10;102952.00;;;;5058106;28;20692;-83
2021/03/02 09:13:37;;;;;;;11.13;6.47;;;;;12.20;102956.00;;;;5066422;28;20692;-83
2021/03/02 09:16:25;;;;;;;10.10;6.50;;;;;12.30;102957.00;;;;5060293;28;20203;-83
2021/03/02 09:19:07;;;;;;;11.48;6.53;;;;;12.40;102954.00;;;;5068108;28;20195;-83
2021/03/02 09:21:35;;;;;;;10.20;5.97;;;;;12.60;102955.00;;;;5056002;28;20268;-84
2021/03/02 09:24:03;;;;;;;10.38;6.15;;;;;12.70;102953.00;;;;5060594;28;20192;-84
2021/03/02 09:26:30;;;;;;;10.52;6.10;;;;;12.80;102954.00;;;;5064720;28;20192;-84
2021/03/02 09:29:00;;;;;;;7.95;4.93;;;;;13.00;102958.00;;;;5057256;28;20207;-84
2021/03/02 09:31:29;;;;;;;9.25;5.55;;;;;13.10;102952.00;;;;5049394;28;20222;-83
2021/03/02 09:33:56;;;;;;;11.73;4.85;;;;;13.20;102962.00;;;;5066700;28;20846;-83
2021/03/02 09:36:26;;;;;;;7.50;4.40;;;;;13.30;102958.00;;;;5061822;28;20712;-84
2021/03/02 09:38:53;;;;;;;7.90;4.97;;;;;13.50;102967.00;;;;5058032;28;20207;-83
2021/03/02 09:41:34;;;;;;;6.18;4.05;;;;;13.60;102963.00;;;;5059030;28;20289;-83
2021/03/02 09:46:56;;;;;;;6.32;3.92;;;;;13.90;102971.00;;;;5116461;27;20537;-82
2021/03/02 09:49:37;;;;;;;7.93;5.00;;;;;14.00;102967.00;;;;5097538;28;20202;-82
2021/03/02 09:52:05;;;;;;;5.85;3.95;;;;;14.20;102962.00;;;;5098408;28;20197;-81
2021/03/02 09:54:32;;;;;;;8.13;5.32;;;;;14.30;102958.00;;;;5103830;28;20190;-83
2021/03/02 09:57:01;;;;;;;7.32;4.55;;;;;14.40;102956.00;;;;5104717;28;20725;-82
2021/03/02 09:59:28;;;;;;;8.15;5.22;;;;;14.50;102953.00;;;;5102885;28;20209;-83
2021/03/02 10:01:56;;;;;;;7.20;4.70;;;;;14.70;102952.00;;;;5101479;28;20198;-82
2021/03/02 10:04:24;;;;;;;7.78;4.45;;;;;14.80;102946.00;;;;5105263;28;20204;-83
2021/03/02 10:06:51;;;;;;;7.20;4.90;;;;;14.90;102957.00;;;;5095579;28;20201;-82
2021/03/02 10:09:23;;;;;;;5.43;4.30;;;;;14.90;102951.00;;;;5103832;28;20664;-83
2021/03/02 10:12:05;;;;;;;6.25;4.60;;;;;15.10;102955.00;;;;5104679;28;20622;-82
2021/03/02 10:14:36;;;;;;;9.93;5.55;;;;;15.20;102949.00;;;;5094618;28;20672;-83
2021/03/02 10:17:04;;;;;;;8.77;5.03;;;;;15.30;102950.00;;;;5101882;28;20205;-83
2021/03/02 10:19:31;;;;;;;10.55;4.88;;;;;15.40;102955.00;;;;5092344;28;20288;-83
2021/03/02 10:21:59;;;;;;;10.40;5.78;;;;;15.50;102954.00;;;;5100682;28;20193;-83
2021/03/02 10:24:27;;;;;;;9.30;5.32;;;;;15.60;102955.00;;;;5094365;28;20618;-84
2021/03/02 10:26:55;;;;;;;7.63;4.45;;;;;15.70;102957.00;;;;5104033;28;20191;-83
2021/03/02 10:29:23;;;;;;;7.78;4.88;;;;;15.90;102961.00;;;;5101985;28;20194;-81
2021/03/02 10:31:50;;;;;;;7.63;4.72;;;;;16.00;102972.00;;;;5104199;28;20193;-82
2021/03/02 10:34:19;;;;;;;7.22;4.57;;;;;16.10;102972.00;;;;5105523;28;20209;-81
2021/03/02 10:36:51;;;;;;;7.32;5.07;;;;;16.20;102973.00;;;;5101461;28;20205;-82
2021/03/02 10:39:18;;;;;;;7.75;5.25;;;;;16.30;102971.00;;;;5104761;28;20254;-82
2021/03/02 10:41:46;;;;;;;7.38;5.15;;;;;16.30;102973.00;;;;5095695;28;20252;-82
2021/03/02 10:44:13;;;;;;;8.05;5.07;;;;;16.50;102963.00;;;;5096952;28;20692;-82
2021/03/02 10:46:41;;;;;;;8.68;5.57;;;;;16.50;102971.00;;;;5102987;28;20710;-81
2021/03/02 10:49:08;;;;;;;8.07;4.78;;;;;16.60;102968.00;;;;5103033;28;20251;-82
2021/03/02 10:51:35;;;;;;;7.85;5.07;;;;;16.70;102958.00;;;;5102817;28;20210;-81
2021/03/02 10:54:02;;;;;;;6.97;4.72;;;;;16.80;102958.00;;;;5102348;28;20194;-81
2021/03/02 10:56:29;;;;;;;8.48;4.70;;;;;16.90;102956.00;;;;5090557;28;20190;-81
2021/03/02 10:58:56;;;;;;;6.35;4.90;;;;;17.00;102960.00;;;;5088487;28;20237;-81
2021/03/02 11:01:23;;;;;;;6.95;5.13;;;;;17.10;102956.00;;;;5084357;28;20252;-81
2021/03/02 11:03:51;;;;;;;8.32;4.95;;;;;17.20;102953.00;;;;5088934;28;20218;-81
2021/03/02 11:06:19;;;;;;;8.23;5.35;;;;;17.30;102966.00;;;;5089086;28;20250;-81
2021/03/02 11:08:48;;;;;;;8.95;5.30;;;;;17.40;102948.00;;;;5089030;28;20202;-81
2021/03/02 11:11:16;;;;;;;7.80;5.28;;;;;17.50;102947.00;;;;5080998;28;20198;-81
2021/03/02 11:13:43;;;;;;;6.55;4.57;;;;;17.60;102946.00;;;;5082207;28;20206;-82
2021/03/02 11:16:11;;;;;;;11.55;5.18;;;;;17.70;102947.00;;;;5084058;28;20606;-83
2021/03/02 11:18:38;;;;;;;8.85;5.57;;;;;17.80;102948.00;;;;5089514;28;20195;-82
2021/03/02 11:21:05;;;;;;;9.30;5.60;;;;;17.90;102951.00;;;;5078610;28;20225;-81
2021/03/02 11:23:32;;;;;;;8.43;5.78;;;;;18.00;102948.00;;;;5088595;28;20198;-81
2021/03/02 11:25:59;;;;;;;7.47;5.90;;;;;18.10;102936.00;;;;5090937;28;20217;-81
2021/03/02 11:28:26;;;;;;;8.05;4.90;;;;;18.20;102935.00;;;;5090571;28;20194;-81
2021/03/02 11:30:53;;;;;;;7.45;5.03;;;;;18.20;102932.00;;;;5088769;28;20274;-83
2021/03/02 11:33:20;;;;;;;10.80;5.25;;;;;18.30;102937.00;;;;5089313;28;20203;-84
2021/03/02 11:35:47;;;;;;;9.38;5.95;;;;;18.40;102931.00;;;;5081746;28;20259;-83
2021/03/02 11:38:14;;;;;;;8.75;5.88;;;;;18.40;102933.00;;;;5087398;28;20202;-84
2021/03/02 11:40:42;;;;;;;8.80;5.93;;;;;18.50;102926.00;;;;5089101;28;20672;-83
2021/03/02 11:43:10;;;;;;;8.85;5.57;;;;;18.50;102930.00;;;;5089888;28;20205;-84
2021/03/02 11:45:37;;;;;;;7.70;5.43;;;;;18.60;102927.00;;;;5088873;28;20233;-83
2021/03/02 11:48:04;;;;;;;7.30;5.22;;;;;18.70;102915.00;;;;5089600;28;20570;-83
2021/03/02 11:50:31;;;;;;;7.78;5.25;;;;;18.70;102909.00;;;;5084968;28;20209;-84
2021/03/02 11:52:58;;;;;;;7.35;5.28;;;;;18.80;102910.00;;;;5077966;28;20202;-83
2021/03/02 11:55:25;;;;;;;7.65;4.88;;;;;18.90;102906.00;;;;5085482;28;20207;-84
2021/03/02 11:57:52;;;;;;;6.60;4.65;;;;;19.00;102900.00;;;;5089250;28;20195;-83
2021/03/02 12:00:23;;;;;;;9.52;5.88;;;;;19.00;102897.00;;;;5083948;28;20198;-84
2021/03/02 12:02:50;;;;;;;7.25;5.43;;;;;19.20;102891.00;;;;5076707;28;20198;-84
2021/03/02 12:05:19;;;;;;;12.27;6.28;;;;;19.20;102888.00;;;;5089555;28;20229;-84
2021/03/02 12:07:46;;;;;;;9.00;5.80;;;;;19.30;102880.00;;;;5084601;28;20232;-83
2021/03/02 12:10:16;;;;;;;8.27;4.55;;;;;19.40;102876.00;;;;5088398;28;20267;-83
2021/03/02 12:12:44;;;;;;;8.50;5.78;;;;;19.50;102879.00;;;;5086965;28;20880;-83
2021/03/02 12:15:12;;;;;;;6.78;5.05;;;;;19.50;102883.00;;;;5087392;28;20231;-84
2021/03/02 12:17:40;;;;;;;7.22;5.05;;;;;19.60;102873.00;;;;5086557;28;20679;-84
2021/03/02 12:20:09;;;;;;;6.10;4.28;;;;;19.60;102875.00;;;;5085148;28;20206;-84
2021/03/02 12:22:36;;;;;;;7.93;5.75;;;;;19.70;102877.00;;;;5086700;28;20190;-83
2021/03/02 12:25:04;;;;;;;8.77;4.60;;;;;19.80;102876.00;;;;5086741;28;20255;-83
2021/03/02 12:27:31;;;;;;;7.38;5.38;;;;;19.80;102875.00;;;;5088441;28;20756;-83